Time;durP1;ratioP1;P1;durP2;ratioP2;P2;SDS_P1;SDS_P2;PMS_P1;PMS_P2;Temp;Humidity;BMP_temperature;BMP_pressure;BME280_temperature;BME280_humidity;BME280_pressure;Samples;Min_cycle;Max_cycle;Signal;HPM_P1;HPM_P2
2024/01/17 00:00:16;;;;;;;29.13;14.60;;;;;;;0.88;100.00;100143.81;5086451;27;20031;-74
2024/01/17 00:02:42;;;;;;;33.63;15.68;;;;;;;1.00;100.00;100140.72;5075582;27;20044;-74
2024/01/17 00:05:11;;;;;;;30.50;16.52;;;;;;;1.04;100.00;100137.09;5092121;27;20039;-74
2024/01/17 00:07:37;;;;;;;30.65;15.25;;;;;;;0.73;100.00;100138.16;5095267;27;20020;-74
2024/01/17 00:10:03;;;;;;;27.92;15.68;;;;;;;0.96;100.00;100128.66;5090351;27;20028;-74
2024/01/17 00:12:29;;;;;;;29.13;15.13;;;;;;;1.06;100.00;100132.66;5076555;27;20232;-75
2024/01/17 00:14:55;;;;;;;28.95;14.57;;;;;;;0.84;100.00;100127.28;5087786;27;20147;-74
2024/01/17 00:17:20;;;;;;;26.77;15.35;;;;;;;0.89;100.00;100121.88;5084925;27;20089;-74
2024/01/17 00:19:46;;;;;;;28.85;14.60;;;;;;;0.88;100.00;100117.56;5093651;27;20134;-74
2024/01/17 00:22:14;;;;;;;29.45;14.35;;;;;;;0.88;100.00;100123.66;5100729;27;20039;-75
2024/01/17 00:24:39;;;;;;;32.65;14.65;;;;;;;0.85;100.00;100123.75;5098221;27;20036;-74
2024/01/17 00:27:05;;;;;;;29.95;14.30;;;;;;;0.68;100.00;100119.09;5097555;27;20024;-75
2024/01/17 00:29:31;;;;;;;39.25;14.48;;;;;;;0.66;100.00;100122.72;5073273;27;20928;-74
2024/01/17 00:31:57;;;;;;;33.53;14.85;;;;;;;0.59;100.00;100106.31;5090169;27;20154;-75
2024/01/17 00:34:22;;;;;;;27.83;13.88;;;;;;;0.39;100.00;100111.38;5083584;27;21060;-74
2024/01/17 00:36:48;;;;;;;32.35;15.98;;;;;;;0.61;100.00;100104.50;5090150;27;20028;-74
2024/01/17 00:39:13;;;;;;;26.13;14.30;;;;;;;0.48;100.00;100090.94;5092442;27;20243;-74
2024/01/17 00:41:40;;;;;;;23.75;13.60;;;;;;;0.64;100.00;100082.53;5097471;27;20861;-75
2024/01/17 00:44:05;;;;;;;31.00;13.38;;;;;;;0.61;100.00;100073.03;5096068;27;20617;-74
2024/01/17 00:46:31;;;;;;;35.28;14.02;;;;;;;0.82;100.00;100070.53;5076117;27;20868;-74
2024/01/17 00:48:57;;;;;;;27.10;13.07;;;;;;;0.34;100.00;100066.09;5072543;27;20028;-75
2024/01/17 00:51:24;;;;;;;32.22;14.13;;;;;;;0.82;100.00;100060.91;5097186;27;20108;-75
2024/01/17 00:53:49;;;;;;;29.90;13.73;;;;;;;0.61;100.00;100054.66;5084889;27;20036;-74
2024/01/17 00:56:16;;;;;;;28.00;13.70;;;;;;;0.81;100.00;100055.72;5082455;27;20043;-74
2024/01/17 00:58:41;;;;;;;31.13;14.25;;;;;;;0.91;100.00;100060.56;5075582;27;20059;-75
2024/01/17 01:01:07;;;;;;;25.92;13.73;;;;;;;0.95;100.00;100054.28;5094678;27;20037;-73
2024/01/17 01:03:32;;;;;;;27.02;13.38;;;;;;;0.93;100.00;100052.63;5093670;27;20031;-73
2024/01/17 01:05:58;;;;;;;26.23;13.18;;;;;;;0.87;100.00;100048.47;5074010;27;20082;-73
2024/01/17 01:08:23;;;;;;;29.63;13.45;;;;;;;0.59;100.00;100051.22;5095141;27;20144;-73
2024/01/17 01:10:49;;;;;;;35.05;13.13;;;;;;;0.59;100.00;100050.38;5097291;27;20038;-75
2024/01/17 01:13:14;;;;;;;29.02;13.95;;;;;;;0.54;100.00;100026.06;5072680;27;20037;-73
2024/01/17 01:15:40;;;;;;;27.70;14.07;;;;;;;0.78;100.00;100031.28;5085345;27;20032;-73
2024/01/17 01:18:05;;;;;;;27.05;13.38;;;;;;;0.86;100.00;100027.53;5085505;27;20041;-73
2024/01/17 01:20:31;;;;;;;26.13;13.77;;;;;;;0.56;100.00;100026.88;5096875;27;20032;-74
2024/01/17 01:22:56;;;;;;;28.02;13.85;;;;;;;0.68;100.00;100018.56;5077854;27;20036;-73
2024/01/17 01:25:22;;;;;;;30.58;14.15;;;;;;;0.72;100.00;100015.78;5094216;27;20028;-74
2024/01/17 01:27:47;;;;;;;24.05;12.70;;;;;;;0.80;100.00;100010.22;5078951;28;20507;-74
2024/01/17 01:30:13;;;;;;;21.70;13.00;;;;;;;0.92;100.00;100007.16;5097056;27;20046;-74
2024/01/17 01:32:38;;;;;;;25.42;12.95;;;;;;;0.96;100.00;100002.66;5067600;27;20036;-74
2024/01/17 01:35:04;;;;;;;32.50;13.45;;;;;;;1.15;100.00;100003.66;5098907;27;20034;-74
2024/01/17 01:37:29;;;;;;;23.45;13.80;;;;;;;1.12;100.00;100009.03;5077877;27;20708;-74
2024/01/17 01:39:55;;;;;;;24.33;13.88;;;;;;;0.97;100.00;99999.97;5096838;27;20032;-76
2024/01/17 01:42:20;;;;;;;28.23;14.68;;;;;;;1.07;100.00;99997.00;5073035;27;20086;-75
2024/01/17 01:44:46;;;;;;;24.17;13.43;;;;;;;0.82;100.00;99991.81;5090212;27;20031;-75
2024/01/17 01:47:13;;;;;;;27.00;14.23;;;;;;;0.72;100.00;99991.31;5102755;27;20035;-74
2024/01/17 01:49:39;;;;;;;24.55;13.55;;;;;;;0.67;100.00;99988.00;5101826;27;20094;-75
2024/01/17 01:52:06;;;;;;;26.95;14.43;;;;;;;0.89;100.00;99985.41;5050586;27;20033;-75
2024/01/17 01:54:32;;;;;;;25.05;14.98;;;;;;;0.91;100.00;99994.13;5107827;27;20039;-73
2024/01/17 01:56:59;;;;;;;34.97;15.00;;;;;;;0.84;100.00;99979.50;5092479;27;20028;-74
2024/01/17 01:59:25;;;;;;;28.90;14.60;;;;;;;0.72;100.00;99972.94;5094832;27;20059;-74
2024/01/17 02:01:51;;;;;;;34.30;16.23;;;;;;;0.46;100.00;99979.16;5083437;27;20059;-74
2024/01/17 02:04:17;;;;;;;31.30;15.85;;;;;;;0.58;100.00;99972.59;5074915;27;20038;-74
2024/01/17 02:06:45;;;;;;;23.52;14.32;;;;;;;0.56;100.00;99967.41;5097432;27;20028;-75
2024/01/17 02:09:11;;;;;;;35.80;17.10;;;;;;;0.55;100.00;99962.19;5090623;27;20047;-75
2024/01/17 02:11:37;;;;;;;30.25;15.65;;;;;;;0.48;100.00;99951.94;5094919;27;20067;-75
2024/01/17 02:14:02;;;;;;;25.23;14.57;;;;;;;0.51;100.00;99950.97;5078532;27;20033;-74
2024/01/17 02:16:28;;;;;;;28.75;15.45;;;;;;;0.45;100.00;99949.44;5094483;27;20771;-75
2024/01/17 02:18:54;;;;;;;33.47;16.77;;;;;;;0.45;100.00;99943.31;5094321;27;20067;-74
2024/01/17 02:21:20;;;;;;;31.67;16.42;;;;;;;0.39;100.00;99928.66;5084333;27;20628;-74
2024/01/17 02:23:50;;;;;;;30.48;16.42;;;;;;;0.44;100.00;99928.50;5078537;28;20035;-74
2024/01/17 02:26:15;;;;;;;30.58;15.65;;;;;;;0.40;100.00;99921.66;5090338;27;20043;-74
2024/01/17 02:28:40;;;;;;;30.00;15.65;;;;;;;0.45;100.00;99915.34;5079834;27;20151;-74
2024/01/17 02:31:06;;;;;;;33.00;15.88;;;;;;;0.15;100.00;99917.31;5088554;27;20074;-75
2024/01/17 02:33:33;;;;;;;31.10;16.23;;;;;;;0.03;100.00;99914.25;5074044;27;20048;-75
2024/01/17 02:35:58;;;;;;;30.02;14.93;;;;;;;-0.19;100.00;99920.25;5097206;27;20032;-75
2024/01/17 02:38:24;;;;;;;33.80;16.65;;;;;;;0.33;100.00;99912.31;5095221;27;20036;-74
2024/01/17 02:40:49;;;;;;;30.02;14.93;;;;;;;0.22;100.00;99913.56;5097856;27;20248;-74
2024/01/17 02:43:15;;;;;;;28.33;14.07;;;;;;;0.35;100.00;99899.97;5095405;27;20133;-75
2024/01/17 02:45:41;;;;;;;27.42;14.80;;;;;;;0.09;100.00;99899.16;5092875;27;20036;-74
2024/01/17 02:48:07;;;;;;;30.45;15.38;;;;;;;0.09;100.00;99891.31;5083242;27;20047;-74
2024/01/17 02:50:32;;;;;;;25.05;13.60;;;;;;;0.38;100.00;99884.16;5096209;27;20085;-74
2024/01/17 02:52:58;;;;;;;30.80;14.88;;;;;;;0.30;100.00;99880.94;5077363;27;20073;-74
2024/01/17 02:55:24;;;;;;;26.48;14.50;;;;;;;0.14;100.00;99873.66;5075249;27;20932;-75
2024/01/17 02:57:53;;;;;;;33.60;14.75;;;;;;;0.24;100.00;99874.16;5081754;27;20042;-75
2024/01/17 03:00:19;;;;;;;30.95;15.77;;;;;;;0.38;100.00;99874.50;5091367;27;21090;-75
2024/01/17 03:02:45;;;;;;;26.73;15.60;;;;;;;0.40;100.00;99854.34;5076345;27;20032;-75
2024/01/17 03:05:10;;;;;;;33.25;15.38;;;;;;;0.29;100.00;99864.38;5095095;27;20099;-75
2024/01/17 03:07:36;;;;;;;25.85;15.25;;;;;;;-0.04;100.00;99853.38;5085581;27;20154;-75
2024/01/17 03:10:02;;;;;;;27.45;15.30;;;;;;;0.38;100.00;99861.41;5093287;27;20503;-74
2024/01/17 03:12:28;;;;;;;31.35;15.98;;;;;;;0.45;100.00;99854.16;5090575;27;20032;-75
2024/01/17 03:14:54;;;;;;;31.95;15.43;;;;;;;0.41;100.00;99850.81;5075904;27;20041;-74
2024/01/17 03:17:19;;;;;;;32.53;15.95;;;;;;;0.06;100.00;99844.25;5073979;27;20054;-74
2024/01/17 03:19:46;;;;;;;26.63;15.32;;;;;;;-1.67;100.00;99859.53;5069131;27;20063;-74
2024/01/17 03:22:15;;;;;;;28.00;14.98;;;;;;;-1.90;100.00;99858.47;5095505;27;20043;-73
2024/01/17 03:24:41;;;;;;;28.30;16.00;;;;;;;-2.11;100.00;99859.94;5093072;27;20128;-75
2024/01/17 03:27:07;;;;;;;34.55;15.77;;;;;;;-2.15;100.00;99858.28;5089938;27;20043;-75
2024/01/17 03:29:32;;;;;;;30.95;16.08;;;;;;;-2.11;100.00;99851.22;5073547;27;20146;-75
2024/01/17 03:31:58;;;;;;;29.42;15.32;;;;;;;-2.15;100.00;99855.69;5091646;27;20031;-75
2024/01/17 03:34:23;;;;;;;27.60;15.32;;;;;;;-2.08;100.00;99848.53;5075639;27;20055;-74
2024/01/17 03:36:49;;;;;;;29.05;15.95;;;;;;;-1.99;100.00;99837.81;5095349;27;20032;-75
2024/01/17 03:39:14;;;;;;;27.35;14.93;;;;;;;-2.02;100.00;99835.28;5072707;27;20886;-74
2024/01/17 03:41:40;;;;;;;27.38;15.20;;;;;;;-2.00;100.00;99825.69;5073596;27;20045;-74
2024/01/17 03:44:06;;;;;;;28.25;14.80;;;;;;;-2.01;100.00;99810.03;5090524;27;20618;-74
2024/01/17 03:46:32;;;;;;;31.38;14.63;;;;;;;-1.97;100.00;99809.91;5087137;27;20063;-74
2024/01/17 03:48:57;;;;;;;35.85;15.43;;;;;;;-1.99;100.00;99808.25;5090600;27;20032;-75
2024/01/17 03:51:23;;;;;;;27.98;14.50;;;;;;;-1.94;100.00;99803.75;5085705;27;20032;-74
2024/01/17 03:53:49;;;;;;;24.70;14.73;;;;;;;-1.94;100.00;99794.16;5078435;27;20032;-75
2024/01/17 03:56:14;;;;;;;28.90;14.75;;;;;;;-1.93;100.00;99784.56;5078770;27;20036;-75
2024/01/17 03:58:41;;;;;;;31.98;13.93;;;;;;;-1.92;100.00;99783.63;5099858;27;20312;-74
2024/01/17 04:01:08;;;;;;;30.52;14.05;;;;;;;-2.03;100.00;99770.06;5097737;27;20032;-75
2024/01/17 04:03:34;;;;;;;29.38;13.68;;;;;;;-2.03;100.00;99776.13;5092219;27;20160;-75
2024/01/17 04:05:59;;;;;;;26.20;13.85;;;;;;;-2.06;100.00;99768.38;5077158;27;20044;-74
2024/01/17 04:08:25;;;;;;;23.63;13.55;;;;;;;-2.25;100.00;99764.59;5103034;27;20203;-75
2024/01/17 04:10:50;;;;;;;25.40;14.07;;;;;;;-1.92;100.00;99755.75;5079970;27;20067;-75
2024/01/17 04:13:16;;;;;;;26.10;13.35;;;;;;;-2.02;100.00;99759.56;5096833;27;20038;-75
2024/01/17 04:15:42;;;;;;;24.25;12.88;;;;;;;-1.99;100.00;99751.63;5091546;27;20031;-75
2024/01/17 04:18:08;;;;;;;23.77;13.20;;;;;;;-2.03;100.00;99747.41;5095410;27;21165;-75
2024/01/17 04:20:33;;;;;;;28.15;14.52;;;;;;;-2.10;100.00;99743.28;5096645;27;20032;-75
2024/01/17 04:22:59;;;;;;;29.98;13.18;;;;;;;-1.08;100.00;99726.94;5093258;27;20032;-75
2024/01/17 04:25:24;;;;;;;29.20;14.30;;;;;;;-0.03;100.00;99714.44;5093837;27;20093;-75
2024/01/17 04:27:50;;;;;;;26.65;14.65;;;;;;;0.35;100.00;99712.09;5091802;27;20032;-74
2024/01/17 04:30:15;;;;;;;23.85;13.70;;;;;;;0.34;100.00;99696.41;5100266;27;20448;-75
2024/01/17 04:32:41;;;;;;;36.60;15.30;;;;;;;0.42;100.00;99691.72;5096329;27;20062;-75
2024/01/17 04:35:07;;;;;;;27.25;14.65;;;;;;;0.56;100.00;99684.16;5091222;27;20485;-75
2024/01/17 04:37:33;;;;;;;28.90;14.55;;;;;;;0.59;100.00;99688.38;5094613;27;20072;-74
2024/01/17 04:39:58;;;;;;;26.77;13.65;;;;;;;0.58;100.00;99676.19;5098574;27;20094;-74
2024/01/17 04:42:23;;;;;;;31.48;15.50;;;;;;;0.31;100.00;99672.94;5071107;27;20035;-74
2024/01/17 04:44:49;;;;;;;24.42;14.13;;;;;;;0.54;100.00;99666.75;5053722;27;20124;-75
2024/01/17 04:47:15;;;;;;;29.98;15.02;;;;;;;0.58;100.00;99656.06;5071144;27;20146;-74
2024/01/17 04:49:42;;;;;;;27.67;15.05;;;;;;;0.49;100.00;99656.44;5095223;27;20024;-74
2024/01/17 04:52:09;;;;;;;26.98;15.85;;;;;;;0.40;100.00;99657.69;5078179;27;20106;-76
2024/01/17 04:54:35;;;;;;;29.65;14.30;;;;;;;0.33;100.00;99652.75;5099926;27;20102;-74
2024/01/17 04:57:00;;;;;;;27.08;15.95;;;;;;;0.47;100.00;99645.19;5097320;27;20565;-74
2024/01/17 04:59:26;;;;;;;34.60;16.17;;;;;;;0.67;100.00;99636.47;5089386;27;20466;-75
2024/01/17 05:01:52;;;;;;;25.83;14.60;;;;;;;0.66;100.00;99637.41;5089991;27;20584;-75
2024/01/17 05:04:18;;;;;;;28.70;14.07;;;;;;;0.64;100.00;99633.97;5091570;27;20032;-75
2024/01/17 05:06:43;;;;;;;28.05;15.85;;;;;;;0.36;100.00;99622.03;5091902;27;20074;-75
2024/01/17 05:09:11;;;;;;;33.97;16.58;;;;;;;0.49;100.00;99620.59;5098789;27;20843;-75
2024/01/17 05:11:37;;;;;;;29.17;16.17;;;;;;;0.55;100.00;99613.38;5091966;27;20135;-74
2024/01/17 05:14:03;;;;;;;27.85;14.93;;;;;;;0.51;100.00;99607.44;5099237;27;20380;-75
2024/01/17 05:16:28;;;;;;;24.13;14.55;;;;;;;0.57;100.00;99616.81;5094733;27;20124;-75
2024/01/17 05:18:54;;;;;;;29.88;14.63;;;;;;;0.18;100.00;99607.91;5092089;27;20477;-75
2024/01/17 05:21:20;;;;;;;29.38;15.43;;;;;;;0.55;100.00;99608.13;5088304;27;20097;-75
2024/01/17 05:23:45;;;;;;;30.17;16.10;;;;;;;0.41;100.00;99609.56;5095626;27;20463;-76
2024/01/17 05:26:11;;;;;;;31.42;15.05;;;;;;;0.47;100.00;99603.22;5096976;27;20730;-75
2024/01/17 05:28:36;;;;;;;30.70;16.50;;;;;;;0.66;100.00;99598.06;5101959;27;20040;-74
2024/01/17 05:31:02;;;;;;;28.73;14.68;;;;;;;0.60;100.00;99586.03;5098437;27;20077;-74
2024/01/17 05:33:27;;;;;;;27.35;14.30;;;;;;;0.72;100.00;99576.78;5093222;27;20549;-75
2024/01/17 05:35:53;;;;;;;23.73;13.15;;;;;;;0.69;100.00;99579.53;5107966;27;20031;-74
2024/01/17 05:38:18;;;;;;;27.95;15.25;;;;;;;0.59;100.00;99579.09;5092463;28;20116;-74
2024/01/17 05:40:44;;;;;;;37.45;15.30;;;;;;;0.60;100.00;99566.81;5092367;27;20058;-75
2024/01/17 05:43:10;;;;;;;27.48;15.20;;;;;;;0.60;100.00;99559.81;5091156;27;20036;-74
2024/01/17 05:45:35;;;;;;;27.48;14.25;;;;;;;0.75;100.00;99558.28;5100412;27;20036;-75
2024/01/17 05:48:02;;;;;;;29.60;14.50;;;;;;;0.63;100.00;99561.44;5102061;27;20474;-74
2024/01/17 05:50:27;;;;;;;32.45;15.40;;;;;;;0.70;100.00;99565.50;5097256;27;20044;-75
2024/01/17 05:52:53;;;;;;;45.08;19.10;;;;;;;0.65;100.00;99557.88;5101674;27;20051;-74
2024/01/17 05:55:22;;;;;;;37.13;17.73;;;;;;;0.70;100.00;99553.25;5094787;27;20058;-73
2024/01/17 05:57:50;;;;;;;44.05;19.70;;;;;;;0.62;100.00;99546.63;5071937;28;20588;-74
2024/01/17 06:00:16;;;;;;;35.97;19.65;;;;;;;0.79;100.00;99536.25;5093554;27;20024;-73
2024/01/17 06:02:42;;;;;;;31.90;16.00;;;;;;;0.62;100.00;99533.53;5092518;27;20047;-75
2024/01/17 06:05:08;;;;;;;34.97;16.73;;;;;;;0.54;100.00;99525.97;5075016;27;20038;-72
2024/01/17 06:07:34;;;;;;;33.55;17.20;;;;;;;0.46;100.00;99518.47;5098351;27;20123;-73
2024/01/17 06:10:00;;;;;;;34.92;15.23;;;;;;;0.58;100.00;99513.59;5098603;27;20043;-73
2024/01/17 06:12:26;;;;;;;30.70;14.90;;;;;;;0.89;100.00;99515.69;5100907;27;20035;-73
2024/01/17 06:14:51;;;;;;;21.35;12.55;;;;;;;0.85;100.00;99507.09;5094490;27;20338;-73
2024/01/17 06:17:17;;;;;;;32.00;15.52;;;;;;;0.07;100.00;99513.16;5071402;27;20036;-72
2024/01/17 06:19:43;;;;;;;29.67;14.68;;;;;;;-1.65;100.00;99499.75;5085070;27;20036;-72
2024/01/17 06:22:09;;;;;;;26.60;14.00;;;;;;;-1.90;100.00;99495.38;5072331;27;20101;-74
2024/01/17 06:24:34;;;;;;;23.02;14.50;;;;;;;-2.10;100.00;99497.81;5073412;27;20397;-75
2024/01/17 06:27:00;;;;;;;29.92;15.70;;;;;;;0.02;100.00;99495.91;5085557;27;20028;-74
2024/01/17 06:29:29;;;;;;;40.58;15.13;;;;;;;0.40;100.00;99497.75;5075633;27;20036;-73
2024/01/17 06:31:55;;;;;;;26.40;14.48;;;;;;;0.51;100.00;99492.88;5091097;27;20066;-74
2024/01/17 06:34:21;;;;;;;32.53;14.38;;;;;;;-1.38;100.00;99496.13;5072710;27;20040;-73
2024/01/17 06:36:46;;;;;;;33.03;16.67;;;;;;;-1.80;100.00;99503.75;5081789;27;20032;-73
2024/01/17 06:39:12;;;;;;;28.67;14.30;;;;;;;-2.02;100.00;99501.00;5091526;27;20028;-75
2024/01/17 06:41:37;;;;;;;28.25;14.82;;;;;;;-2.20;100.00;99486.81;5074406;27;20166;-73
2024/01/17 06:44:03;;;;;;;34.97;15.05;;;;;;;-2.16;100.00;99477.97;5044044;27;20020;-72
2024/01/17 06:46:28;;;;;;;33.78;15.05;;;;;;;-2.30;100.00;99485.41;5056204;27;20879;-74
2024/01/17 06:48:54;;;;;;;25.00;14.45;;;;;;;-2.28;100.00;99482.75;5090042;27;20113;-74
2024/01/17 06:51:19;;;;;;;29.05;16.55;;;;;;;-2.22;100.00;99482.53;5089206;27;20070;-75
2024/01/17 06:53:45;;;;;;;30.38;14.35;;;;;;;-2.21;100.00;99474.66;5092010;27;20040;-74
2024/01/17 06:56:13;;;;;;;30.45;13.80;;;;;;;-2.25;100.00;99467.84;5085467;27;20055;-74
2024/01/17 06:58:38;;;;;;;25.75;14.50;;;;;;;-2.22;100.00;99461.66;5084679;27;20046;-75
2024/01/17 07:01:04;;;;;;;35.78;15.13;;;;;;;-2.25;100.00;99467.84;5087509;27;20032;-74
2024/01/17 07:03:30;;;;;;;30.20;15.23;;;;;;;-2.25;100.00;99467.84;5089107;27;20027;-74
2024/01/17 07:05:55;;;;;;;31.13;14.57;;;;;;;-2.27;100.00;99461.78;5086697;27;20076;-75
2024/01/17 07:08:21;;;;;;;33.33;14.20;;;;;;;-2.25;100.00;99459.16;5092907;27;20052;-74
2024/01/17 07:10:46;;;;;;;25.80;14.38;;;;;;;-2.23;100.00;99447.75;5091835;27;20044;-73
2024/01/17 07:13:12;;;;;;;28.77;15.27;;;;;;;-2.40;100.00;99455.28;5080689;27;20393;-75
2024/01/17 07:15:38;;;;;;;25.33;14.70;;;;;;;-2.37;100.00;99455.19;5068346;27;20066;-74
2024/01/17 07:18:03;;;;;;;30.02;15.48;;;;;;;-2.40;100.00;99447.47;5069389;27;20028;-74
2024/01/17 07:20:29;;;;;;;36.90;18.63;;;;;;;-2.27;100.00;99443.53;5092197;27;20043;-74
2024/01/17 07:22:55;;;;;;;38.92;18.77;;;;;;;-2.23;100.00;99439.91;5085008;27;20032;-74
2024/01/17 07:25:21;;;;;;;44.15;18.95;;;;;;;-2.39;100.00;99449.16;5064556;27;20031;-74
2024/01/17 07:27:47;;;;;;;40.35;18.35;;;;;;;-2.25;100.00;99440.88;5086166;27;20146;-74
2024/01/17 07:30:13;;;;;;;35.63;17.58;;;;;;;-2.36;100.00;99436.00;5087416;27;20036;-74
2024/01/17 07:32:39;;;;;;;35.72;17.48;;;;;;;-2.22;100.00;99432.94;5083937;27;20028;-75
2024/01/17 07:35:06;;;;;;;33.65;16.33;;;;;;;-2.09;100.00;99427.25;5071761;27;20036;-75
2024/01/17 07:37:32;;;;;;;32.42;16.27;;;;;;;-2.08;100.00;99420.25;5074663;27;20028;-74
2024/01/17 07:40:00;;;;;;;33.40;17.55;;;;;;;-0.01;100.00;99418.28;5082565;27;20065;-75
2024/01/17 07:42:25;;;;;;;31.02;17.63;;;;;;;0.28;100.00;99403.06;5071232;27;20032;-75
2024/01/17 07:44:51;;;;;;;35.58;18.35;;;;;;;0.33;100.00;99394.06;5093591;27;20676;-74
2024/01/17 07:47:20;;;;;;;32.88;17.30;;;;;;;0.60;100.00;99388.47;5087159;27;20024;-74
2024/01/17 07:49:45;;;;;;;31.15;17.58;;;;;;;0.65;100.00;99381.25;5090601;27;20044;-75
2024/01/17 07:52:11;;;;;;;33.05;18.65;;;;;;;0.70;100.00;99380.13;5073565;27;20029;-74
2024/01/17 07:54:36;;;;;;;38.47;17.92;;;;;;;0.83;100.00;99374.31;5068598;28;20044;-75
2024/01/17 07:57:03;;;;;;;34.63;18.10;;;;;;;0.95;100.00;99366.69;5085041;27;20035;-74
2024/01/17 07:59:28;;;;;;;38.10;20.33;;;;;;;0.99;100.00;99372.63;5092211;27;20036;-74
2024/01/17 08:01:54;;;;;;;34.38;18.55;;;;;;;0.99;100.00;99357.75;5092483;27;20991;-74
2024/01/17 08:04:20;;;;;;;37.28;19.67;;;;;;;0.97;100.00;99353.50;5088985;27;20039;-74
2024/01/17 08:06:46;;;;;;;37.03;19.50;;;;;;;1.04;100.00;99345.25;5072603;27;20074;-75
2024/01/17 08:09:21;;;;;;;34.10;18.85;;;;;;;1.21;100.00;99347.06;5091869;27;20036;-75
2024/01/17 08:11:51;;;;;;;39.95;18.60;;;;;;;1.09;100.00;99339.78;5078141;27;20025;-74
2024/01/17 08:14:17;;;;;;;36.20;18.45;;;;;;;1.11;100.00;99337.09;5091237;27;20028;-75
2024/01/17 08:16:43;;;;;;;32.33;18.42;;;;;;;1.44;100.00;99327.53;5063010;27;20032;-75
2024/01/17 08:19:09;;;;;;;29.38;18.00;;;;;;;1.63;100.00;99331.84;5096486;27;21005;-74
2024/01/17 08:21:34;;;;;;;32.28;16.67;;;;;;;1.53;100.00;99320.97;5097338;27;20140;-74
2024/01/17 08:24:00;;;;;;;35.72;17.63;;;;;;;1.69;100.00;99321.03;5095167;27;20147;-74
2024/01/17 08:26:26;;;;;;;32.65;18.05;;;;;;;1.65;100.00;99309.81;5080592;27;20032;-74
2024/01/17 08:28:51;;;;;;;41.03;18.50;;;;;;;1.59;100.00;99312.75;5053491;28;20178;-74
2024/01/17 08:31:17;;;;;;;33.92;17.52;;;;;;;1.63;100.00;99313.47;5085157;27;20031;-75
2024/01/17 08:33:42;;;;;;;37.38;18.23;;;;;;;1.64;100.00;99302.03;5094257;27;20048;-75
2024/01/17 08:36:08;;;;;;;34.78;17.58;;;;;;;1.21;100.00;99302.44;5085883;27;20042;-75
2024/01/17 08:38:34;;;;;;;35.10;17.73;;;;;;;1.17;100.00;99300.88;5095840;27;20036;-74
2024/01/17 08:40:59;;;;;;;36.47;17.90;;;;;;;1.34;100.00;99292.16;5080150;27;20255;-74
2024/01/17 08:43:25;;;;;;;40.88;18.70;;;;;;;0.83;100.00;99292.97;5089392;27;20161;-74
2024/01/17 08:45:50;;;;;;;34.25;18.88;;;;;;;-0.59;100.00;99290.69;5097732;27;20633;-74
2024/01/17 08:48:16;;;;;;;40.33;19.45;;;;;;;-1.02;100.00;99288.19;5073259;28;20840;-74
2024/01/17 08:50:41;;;;;;;36.75;17.42;;;;;;;-0.94;100.00;99288.72;5091494;27;20028;-74
2024/01/17 08:53:07;;;;;;;35.92;17.90;;;;;;;-0.97;100.00;99278.38;5098877;27;20698;-75
2024/01/17 08:55:32;;;;;;;35.22;17.63;;;;;;;-0.87;100.00;99284.94;5098074;27;20425;-74
2024/01/17 08:57:58;;;;;;;36.63;20.60;;;;;;;-0.94;100.00;99279.09;5094570;27;20872;-75
2024/01/17 09:00:23;;;;;;;53.00;22.77;;;;;;;-0.84;100.00;99282.19;5095202;27;20782;-75
2024/01/17 09:02:49;;;;;;;49.20;23.55;;;;;;;-0.76;100.00;99281.84;5099423;27;20025;-74
2024/01/17 09:05:16;;;;;;;48.60;22.67;;;;;;;-0.64;100.00;99274.34;5097526;27;20031;-74
2024/01/17 09:07:43;;;;;;;47.13;23.52;;;;;;;-0.74;100.00;99270.41;5072249;28;20032;-74
2024/01/17 09:10:09;;;;;;;36.28;18.63;;;;;;;-0.58;100.00;99268.00;5089056;27;20047;-73
2024/01/17 09:12:36;;;;;;;35.53;18.08;;;;;;;-0.55;100.00;99262.63;5078255;27;20131;-74
2024/01/17 09:15:01;;;;;;;31.50;17.23;;;;;;;-0.42;100.00;99255.91;5096896;27;20071;-74
2024/01/17 09:17:27;;;;;;;37.83;18.30;;;;;;;-0.37;100.00;99253.09;5080065;27;20033;-74
2024/01/17 09:19:53;;;;;;;38.60;18.50;;;;;;;-0.32;100.00;99244.13;5096741;27;20024;-74
2024/01/17 09:22:18;;;;;;;43.15;19.92;;;;;;;-0.33;100.00;99239.81;5096973;27;20388;-74
2024/01/17 09:24:44;;;;;;;40.13;19.13;;;;;;;-0.24;100.00;99241.19;5098072;27;20024;-74
2024/01/17 09:27:09;;;;;;;35.55;18.60;;;;;;;-0.06;100.00;99234.22;5094362;27;20572;-74
2024/01/17 09:29:35;;;;;;;41.22;19.08;;;;;;;-0.06;100.00;99227.22;5072053;27;21066;-73
2024/01/17 09:32:01;;;;;;;32.05;17.17;;;;;;;-0.03;100.00;99228.88;5082281;27;20139;-74
2024/01/17 09:34:28;;;;;;;35.50;17.52;;;;;;;0.08;100.00;99223.97;5091839;27;20135;-74
2024/01/17 09:36:53;;;;;;;33.60;18.02;;;;;;;-0.02;100.00;99220.06;5094877;27;20143;-73
2024/01/17 09:39:19;;;;;;;36.10;18.15;;;;;;;-0.17;100.00;99223.41;5074293;27;20032;-74
2024/01/17 09:41:45;;;;;;;30.02;17.40;;;;;;;0.06;100.00;99219.72;5080224;27;20887;-73
2024/01/17 09:44:11;;;;;;;36.38;16.67;;;;;;;-0.16;100.00;99217.22;5093075;27;20032;-73
2024/01/17 09:46:40;;;;;;;32.00;17.40;;;;;;;-0.10;100.00;99214.31;5078334;27;20045;-73
2024/01/17 09:49:06;;;;;;;33.88;18.90;;;;;;;0.12;100.00;99209.81;5086451;27;20039;-73
2024/01/17 09:51:32;;;;;;;28.75;16.77;;;;;;;0.19;100.00;99210.34;5092573;27;20090;-73
2024/01/17 09:54:00;;;;;;;28.80;16.88;;;;;;;0.23;100.00;99218.00;5090861;27;20063;-74
2024/01/17 09:56:28;;;;;;;33.47;17.27;;;;;;;0.12;100.00;99214.19;5089188;27;20040;-73
2024/01/17 09:58:55;;;;;;;35.70;18.60;;;;;;;1.43;100.00;99212.06;5089158;27;20047;-74
2024/01/17 10:01:22;;;;;;;32.30;17.50;;;;;;;2.38;100.00;99206.91;5096023;27;20060;-74
2024/01/17 10:03:51;;;;;;;38.70;17.60;;;;;;;2.77;100.00;99204.66;5065289;28;20032;-73
2024/01/17 10:06:18;;;;;;;36.53;17.80;;;;;;;2.80;100.00;99208.88;5089586;27;20034;-73
2024/01/17 10:08:45;;;;;;;36.65;17.70;;;;;;;3.07;100.00;99209.91;5071474;27;20042;-75
2024/01/17 10:11:10;;;;;;;34.67;18.25;;;;;;;3.09;100.00;99205.38;5069649;27;20179;-74
2024/01/17 10:13:36;;;;;;;32.97;17.67;;;;;;;2.24;100.00;99203.25;5089065;27;20048;-73
2024/01/17 10:16:03;;;;;;;37.88;19.27;;;;;;;3.21;100.00;99187.16;5096396;27;20040;-73
2024/01/17 10:18:30;;;;;;;34.33;18.35;;;;;;;3.31;100.00;99175.13;5090105;27;20867;-74
2024/01/17 10:20:56;;;;;;;31.92;18.10;;;;;;;3.10;100.00;99177.25;5070392;27;20063;-74
2024/01/17 10:23:24;;;;;;;34.90;17.35;;;;;;;3.26;100.00;99170.16;5081108;27;20062;-74
2024/01/17 10:25:51;;;;;;;31.85;16.65;;;;;;;3.28;100.00;99163.00;5089751;27;20032;-74
2024/01/17 10:28:16;;;;;;;38.97;19.20;;;;;;;3.56;100.00;99151.59;5089325;27;20032;-74
2024/01/17 10:30:42;;;;;;;35.88;18.35;;;;;;;3.80;100.00;99161.56;5082975;27;20028;-74
2024/01/17 10:33:08;;;;;;;31.83;16.27;;;;;;;3.93;99.45;99159.03;5091134;27;20035;-74
2024/01/17 10:35:34;;;;;;;33.25;18.15;;;;;;;3.62;97.15;99155.69;5087121;27;20113;-73
2024/01/17 10:38:00;;;;;;;32.47;17.65;;;;;;;3.14;97.56;99149.81;5094478;27;20028;-74
2024/01/17 10:40:25;;;;;;;31.98;16.88;;;;;;;3.50;98.90;99138.81;5089980;27;20044;-73
2024/01/17 10:43:10;;;;;;;35.55;17.30;;;;;;;3.67;98.47;99129.88;5082544;27;20094;-73
2024/01/17 10:45:42;;;;;;;31.88;16.63;;;;;;;3.83;96.97;99127.13;5091942;27;20024;-73
2024/01/17 10:48:08;;;;;;;31.75;16.95;;;;;;;3.83;96.37;99116.56;5090337;27;20542;-73
2024/01/17 10:50:34;;;;;;;33.03;17.35;;;;;;;4.06;96.61;99115.09;5083689;27;20497;-73
2024/01/17 10:53:08;;;;;;;36.55;17.55;;;;;;;4.12;96.45;99118.19;5094520;27;20051;-74
2024/01/17 10:55:38;;;;;;;29.98;16.50;;;;;;;4.14;96.75;99111.03;5095224;27;20126;-74
2024/01/17 10:58:11;;;;;;;35.67;17.45;;;;;;;4.15;94.85;99115.34;5088765;27;20027;-73
2024/01/17 11:00:40;;;;;;;30.60;17.85;;;;;;;4.33;94.23;99115.09;5091243;27;20869;-73
2024/01/17 11:03:09;;;;;;;37.88;18.38;;;;;;;4.35;93.56;99113.19;5083119;27;21035;-73
2024/01/17 11:05:44;;;;;;;31.55;17.92;;;;;;;4.26;93.45;99097.97;5088336;27;20778;-74
2024/01/17 11:08:12;;;;;;;29.70;17.50;;;;;;;4.24;93.62;99097.25;5093210;27;20239;-74